Blairsville, GA (30512)

1:22 PM EST on March 01, 2017 (GMT -0500)
Old England | | Change Station
Active Advisory: Tornado Watch Active Notice: Public Information Statement

Elev 1883 ft 34.90 °N, 84.03 °W | Updated 2 minutes ago

Mostly Cloudy
Mostly Cloudy
66.6 °F
Feels Like 66.6 °F
N
2.0
Wind Variable Wind from North
Gusts 6.0 mph

Today
High -- | Low -- °F
--% Chance of Precip.
Yesterday
High -- | Low -- °F
Precip. -- in
Pressure 29.93 in
Visibility 10.0 miles
Clouds Scattered Clouds 2300 ft
Mostly Cloudy 2800 ft
Overcast 3300 ft
Dew Point 61 °F
Humidity 83%
Rainfall 0.00 in
Snow Depth Not available.
7:05 AM 6:32 PM
Waxing Crescent, 12% visible
METAR KRHP 011810Z AUTO 25012G16KT 10SM SCT023 BKN028 OVC033 19/16 A2993 RMK AO2 T01880155
Pressure 29.93 in
Visibility 10.0 miles
Clouds Scattered Clouds 2300 ft
Mostly Cloudy 2800 ft
Overcast 3300 ft
Dew Point 61 °F
Humidity 83%
Rainfall 0.00 in
Snow Depth Not available.
7:05 AM 6:32 PM
Waxing Crescent, 12% visible
METAR KRHP 011810Z AUTO 25012G16KT 10SM SCT023 BKN028 OVC033 19/16 A2993 RMK AO2 T01880155

Get Your Daily Forecast Email!

Thanks for signing up!

Be on the lookout for a verification email in your inbox.

You'll start receiving the daily forecast at 8 AM.

×

10-Day Weather Forecast

Almanac

Astronomy

Mar. 01, 2017 Rise Set
Actual Time
Civil Twilight
Nautical Twilight
Astronomical Twilight
Moon
Length of Visible Light
Length of Day
Tomorrow will be .
, % of the Moon is Illuminated

Today's Extremes

State Highs State Lows

Community

WunderPhotos

Upload Photos

1,962,540 photos uploaded!

WunderBlog® & News

Nearby

Air Quality

  Air Quality AQ Index Pollutant
Not available.

Snow Depth

Station Depth Elevation

Earthquake Activity

City Distance Mag. Time & Date
Minimum magnitude displayed is 2.5.

Coastal Water Temperatures

Place Temperature

Stations

Nearby Weather Stations

Station Location Temp. Windchill Dew Point Humidity Wind Precip. Elev Updated Type
                   

Watches & Warnings

Tornado Watch
Issued: 12:03 PM CST Mar. 1, 2017 – National Weather Service

Tornado Watch 57 remains in effect until 600 PM CST for the
following locations

GA
. Georgia counties included are

Bartow Catoosa Chattooga
Cherokee Dade Dawson
Fannin Floyd Gilmer
Gordon Lumpkin Murray
Pickens Polk towns
Union Walker white
Whitfield